METAR AND TAF INFORMATION
METAR FOR TXKF
TXKF 270455Z 00000KT 9999 FEW045 13/12 Q1026
TXKF 270355Z 04002KT 9999 FEW043 13/11 Q1026
TXKF 270255Z 02002KT 9999 FEW040 13/09 Q1026

TAF TXKF 270530Z 2706/2806 VRB03KT 9999 FEW040
BECMG 2712/2715 09010KT

 AIRPORT MAP

 RUNWAY INFORMATION
Runway 12 Runway length 9713 ft Runway width 150 ft
Runway elevation 11 ft Runway displaced threshold 0 ft Runway heading 102
Runway 30 Runway length 9713 ft Runway width 150 ft
Runway elevation 12 ft Runway displaced threshold 0 ft Runway heading 282

 AIRPORT FREQUENCIES
Type APP Name NEW YORK A Frequency 119.1 MHZ
Type CLD Name CLNC DEL Frequency 124.5 MHZ
Type CNTR Name NEW YORK C Frequency 128.5 MHZ
Type CTAF Name CTAF Frequency 122.8 MHZ
Type GND Name GND Frequency 124.5 MHZ
Type TWR Name TWR Frequency 118.1 MHZ

 AIRPORT NEAR NAVIGATION AIDS
Type VOR-DME Name Bermuda Frequency 113900 KHZ

-